sensor_id;sensor_type;location;lat;lon;timestamp;P1;durP1;ratioP1;P2;durP2;ratioP2
35380;SDS011;21486;51.916;8.378;2023-04-16T00:02:17;78.15;;;40.30;;
35380;SDS011;21486;51.916;8.378;2023-04-16T00:04:43;72.80;;;40.87;;
35380;SDS011;21486;51.916;8.378;2023-04-16T00:07:09;73.72;;;40.97;;
35380;SDS011;21486;51.916;8.378;2023-04-16T00:09:34;76.75;;;40.65;;
35380;SDS011;21486;51.916;8.378;2023-04-16T00:12:00;86.00;;;42.97;;
35380;SDS011;21486;51.916;8.378;2023-04-16T00:14:26;83.15;;;42.85;;
35380;SDS011;21486;51.916;8.378;2023-04-16T00:16:51;78.07;;;41.58;;
35380;SDS011;21486;51.916;8.378;2023-04-16T00:19:17;73.33;;;40.13;;
35380;SDS011;21486;51.916;8.378;2023-04-16T00:21:42;74.93;;;41.53;;
35380;SDS011;21486;51.916;8.378;2023-04-16T00:24:08;79.25;;;43.15;;
35380;SDS011;21486;51.916;8.378;2023-04-16T00:26:34;81.00;;;43.87;;
35380;SDS011;21486;51.916;8.378;2023-04-16T00:29:00;85.87;;;45.23;;
35380;SDS011;21486;51.916;8.378;2023-04-16T00:33:01;81.10;;;43.70;;
35380;SDS011;21486;51.916;8.378;2023-04-16T00:35:28;86.40;;;44.80;;
35380;SDS011;21486;51.916;8.378;2023-04-16T00:37:54;79.43;;;43.80;;
35380;SDS011;21486;51.916;8.378;2023-04-16T00:40:20;83.63;;;44.70;;
35380;SDS011;21486;51.916;8.378;2023-04-16T00:42:45;82.87;;;45.07;;
35380;SDS011;21486;51.916;8.378;2023-04-16T00:45:11;79.87;;;43.07;;
35380;SDS011;21486;51.916;8.378;2023-04-16T00:47:37;78.40;;;43.03;;
35380;SDS011;21486;51.916;8.378;2023-04-16T00:50:02;81.95;;;44.75;;
35380;SDS011;21486;51.916;8.378;2023-04-16T00:52:30;85.97;;;45.53;;
35380;SDS011;21486;51.916;8.378;2023-04-16T00:54:56;82.70;;;45.30;;
35380;SDS011;21486;51.916;8.378;2023-04-16T00:57:22;88.35;;;46.65;;
35380;SDS011;21486;51.916;8.378;2023-04-16T00:59:48;91.73;;;48.63;;
35380;SDS011;21486;51.916;8.378;2023-04-16T01:02:14;88.10;;;48.27;;
35380;SDS011;21486;51.916;8.378;2023-04-16T01:04:40;78.60;;;45.05;;
35380;SDS011;21486;51.916;8.378;2023-04-16T01:07:06;83.35;;;44.72;;
35380;SDS011;21486;51.916;8.378;2023-04-16T01:09:32;91.65;;;46.17;;
35380;SDS011;21486;51.916;8.378;2023-04-16T01:11:57;85.78;;;46.90;;
35380;SDS011;21486;51.916;8.378;2023-04-16T01:14:23;83.50;;;46.95;;
35380;SDS011;21486;51.916;8.378;2023-04-16T01:16:48;83.90;;;46.77;;
35380;SDS011;21486;51.916;8.378;2023-04-16T01:19:14;92.63;;;47.70;;
35380;SDS011;21486;51.916;8.378;2023-04-16T01:21:40;86.33;;;46.40;;
35380;SDS011;21486;51.916;8.378;2023-04-16T01:24:05;84.57;;;47.53;;
35380;SDS011;21486;51.916;8.378;2023-04-16T01:26:31;82.68;;;46.33;;
35380;SDS011;21486;51.916;8.378;2023-04-16T01:28:57;87.95;;;47.88;;
35380;SDS011;21486;51.916;8.378;2023-04-16T01:31:23;90.22;;;48.78;;
35380;SDS011;21486;51.916;8.378;2023-04-16T01:33:48;83.78;;;46.95;;
35380;SDS011;21486;51.916;8.378;2023-04-16T01:36:14;83.40;;;45.97;;
35380;SDS011;21486;51.916;8.378;2023-04-16T01:38:39;88.60;;;46.88;;
35380;SDS011;21486;51.916;8.378;2023-04-16T01:41:05;83.88;;;47.90;;
35380;SDS011;21486;51.916;8.378;2023-04-16T01:43:30;80.37;;;45.53;;
35380;SDS011;21486;51.916;8.378;2023-04-16T01:48:54;79.87;;;46.17;;
35380;SDS011;21486;51.916;8.378;2023-04-16T01:51:20;92.18;;;50.63;;
35380;SDS011;21486;51.916;8.378;2023-04-16T01:53:48;79.60;;;45.10;;
35380;SDS011;21486;51.916;8.378;2023-04-16T01:56:14;81.53;;;46.33;;
35380;SDS011;21486;51.916;8.378;2023-04-16T01:58:40;78.57;;;45.33;;
35380;SDS011;21486;51.916;8.378;2023-04-16T02:01:06;77.30;;;45.53;;
35380;SDS011;21486;51.916;8.378;2023-04-16T02:03:32;73.88;;;44.72;;
35380;SDS011;21486;51.916;8.378;2023-04-16T02:05:58;69.60;;;45.23;;
35380;SDS011;21486;51.916;8.378;2023-04-16T02:08:25;85.10;;;47.33;;
35380;SDS011;21486;51.916;8.378;2023-04-16T02:10:51;80.20;;;47.10;;
35380;SDS011;21486;51.916;8.378;2023-04-16T02:13:16;83.47;;;47.58;;
35380;SDS011;21486;51.916;8.378;2023-04-16T02:15:45;82.93;;;47.30;;
35380;SDS011;21486;51.916;8.378;2023-04-16T02:18:12;82.35;;;47.88;;
35380;SDS011;21486;51.916;8.378;2023-04-16T02:20:38;84.53;;;48.50;;
35380;SDS011;21486;51.916;8.378;2023-04-16T02:23:05;83.53;;;49.95;;
35380;SDS011;21486;51.916;8.378;2023-04-16T02:25:31;86.53;;;50.30;;
35380;SDS011;21486;51.916;8.378;2023-04-16T02:27:57;85.07;;;49.50;;
35380;SDS011;21486;51.916;8.378;2023-04-16T02:30:22;86.10;;;48.20;;
35380;SDS011;21486;51.916;8.378;2023-04-16T02:32:48;80.45;;;48.33;;
35380;SDS011;21486;51.916;8.378;2023-04-16T02:35:14;78.50;;;48.30;;
35380;SDS011;21486;51.916;8.378;2023-04-16T02:37:39;81.38;;;48.28;;
35380;SDS011;21486;51.916;8.378;2023-04-16T02:40:05;77.13;;;46.00;;
35380;SDS011;21486;51.916;8.378;2023-04-16T02:42:31;70.63;;;44.15;;
35380;SDS011;21486;51.916;8.378;2023-04-16T02:44:56;80.07;;;45.43;;
35380;SDS011;21486;51.916;8.378;2023-04-16T02:47:22;72.43;;;43.63;;
35380;SDS011;21486;51.916;8.378;2023-04-16T02:49:47;69.03;;;43.63;;
35380;SDS011;21486;51.916;8.378;2023-04-16T02:52:13;66.70;;;43.27;;
35380;SDS011;21486;51.916;8.378;2023-04-16T02:54:39;66.07;;;42.33;;
35380;SDS011;21486;51.916;8.378;2023-04-16T02:57:04;66.10;;;42.72;;
35380;SDS011;21486;51.916;8.378;2023-04-16T02:59:30;67.90;;;42.08;;
35380;SDS011;21486;51.916;8.378;2023-04-16T03:01:56;69.45;;;43.40;;
35380;SDS011;21486;51.916;8.378;2023-04-16T03:04:21;70.63;;;44.20;;
35380;SDS011;21486;51.916;8.378;2023-04-16T03:06:47;71.70;;;44.57;;
35380;SDS011;21486;51.916;8.378;2023-04-16T03:09:12;72.73;;;44.57;;
35380;SDS011;21486;51.916;8.378;2023-04-16T03:11:38;74.15;;;44.70;;
35380;SDS011;21486;51.916;8.378;2023-04-16T03:14:04;74.38;;;43.70;;
35380;SDS011;21486;51.916;8.378;2023-04-16T03:16:30;70.80;;;44.77;;
35380;SDS011;21486;51.916;8.378;2023-04-16T03:18:55;69.73;;;43.33;;
35380;SDS011;21486;51.916;8.378;2023-04-16T03:21:21;67.53;;;44.00;;
35380;SDS011;21486;51.916;8.378;2023-04-16T03:23:46;69.90;;;43.75;;
35380;SDS011;21486;51.916;8.378;2023-04-16T03:26:12;69.77;;;44.13;;
35380;SDS011;21486;51.916;8.378;2023-04-16T03:28:37;72.57;;;44.03;;
35380;SDS011;21486;51.916;8.378;2023-04-16T03:31:03;70.03;;;44.83;;
35380;SDS011;21486;51.916;8.378;2023-04-16T03:33:29;72.45;;;46.30;;
35380;SDS011;21486;51.916;8.378;2023-04-16T03:35:55;69.77;;;45.03;;
35380;SDS011;21486;51.916;8.378;2023-04-16T03:38:21;72.70;;;45.97;;
35380;SDS011;21486;51.916;8.378;2023-04-16T03:40:48;71.60;;;44.70;;
35380;SDS011;21486;51.916;8.378;2023-04-16T03:43:13;75.77;;;46.20;;
35380;SDS011;21486;51.916;8.378;2023-04-16T03:45:42;75.28;;;46.25;;
35380;SDS011;21486;51.916;8.378;2023-04-16T03:48:09;74.90;;;46.25;;
35380;SDS011;21486;51.916;8.378;2023-04-16T03:50:34;73.28;;;47.17;;
35380;SDS011;21486;51.916;8.378;2023-04-16T03:53:00;72.00;;;45.77;;
35380;SDS011;21486;51.916;8.378;2023-04-16T03:55:25;70.73;;;44.67;;
35380;SDS011;21486;51.916;8.378;2023-04-16T03:57:52;70.45;;;45.05;;
35380;SDS011;21486;51.916;8.378;2023-04-16T04:00:17;73.70;;;45.53;;
35380;SDS011;21486;51.916;8.378;2023-04-16T04:02:43;70.05;;;46.08;;
35380;SDS011;21486;51.916;8.378;2023-04-16T04:05:08;67.83;;;45.40;;
35380;SDS011;21486;51.916;8.378;2023-04-16T04:07:34;72.03;;;44.87;;
35380;SDS011;21486;51.916;8.378;2023-04-16T04:10:00;76.30;;;46.10;;
35380;SDS011;21486;51.916;8.378;2023-04-16T04:12:25;73.20;;;45.27;;
35380;SDS011;21486;51.916;8.378;2023-04-16T04:14:51;74.10;;;46.60;;
35380;SDS011;21486;51.916;8.378;2023-04-16T04:17:16;82.00;;;46.28;;
35380;SDS011;21486;51.916;8.378;2023-04-16T04:19:42;71.20;;;44.78;;
35380;SDS011;21486;51.916;8.378;2023-04-16T04:22:07;73.50;;;44.90;;
35380;SDS011;21486;51.916;8.378;2023-04-16T04:24:33;75.03;;;45.43;;
35380;SDS011;21486;51.916;8.378;2023-04-16T04:26:59;68.80;;;44.80;;
35380;SDS011;21486;51.916;8.378;2023-04-16T04:29:25;71.95;;;44.97;;
35380;SDS011;21486;51.916;8.378;2023-04-16T04:31:51;69.95;;;44.97;;
35380;SDS011;21486;51.916;8.378;2023-04-16T04:34:17;73.25;;;45.05;;
35380;SDS011;21486;51.916;8.378;2023-04-16T04:36:43;68.87;;;44.47;;
35380;SDS011;21486;51.916;8.378;2023-04-16T04:39:08;79.00;;;45.93;;
35380;SDS011;21486;51.916;8.378;2023-04-16T04:41:34;74.85;;;45.05;;
35380;SDS011;21486;51.916;8.378;2023-04-16T04:44:00;71.88;;;45.88;;
35380;SDS011;21486;51.916;8.378;2023-04-16T04:46:25;75.22;;;47.05;;
35380;SDS011;21486;51.916;8.378;2023-04-16T04:48:51;73.47;;;45.77;;
35380;SDS011;21486;51.916;8.378;2023-04-16T04:51:16;74.17;;;46.37;;
35380;SDS011;21486;51.916;8.378;2023-04-16T04:53:42;72.23;;;46.90;;
35380;SDS011;21486;51.916;8.378;2023-04-16T04:56:07;76.03;;;47.70;;
35380;SDS011;21486;51.916;8.378;2023-04-16T04:58:33;75.63;;;48.20;;
35380;SDS011;21486;51.916;8.378;2023-04-16T05:00:58;74.20;;;46.92;;
35380;SDS011;21486;51.916;8.378;2023-04-16T05:03:24;72.47;;;47.50;;
35380;SDS011;21486;51.916;8.378;2023-04-16T05:05:49;69.73;;;45.77;;
35380;SDS011;21486;51.916;8.378;2023-04-16T05:08:15;73.40;;;45.77;;
35380;SDS011;21486;51.916;8.378;2023-04-16T05:10:40;70.55;;;45.28;;
35380;SDS011;21486;51.916;8.378;2023-04-16T05:13:06;71.65;;;44.63;;
35380;SDS011;21486;51.916;8.378;2023-04-16T05:15:31;70.27;;;44.20;;
35380;SDS011;21486;51.916;8.378;2023-04-16T05:17:57;69.17;;;42.83;;
35380;SDS011;21486;51.916;8.378;2023-04-16T05:20:22;67.97;;;42.57;;
35380;SDS011;21486;51.916;8.378;2023-04-16T05:22:51;69.60;;;44.53;;
35380;SDS011;21486;51.916;8.378;2023-04-16T05:25:17;74.75;;;44.55;;
35380;SDS011;21486;51.916;8.378;2023-04-16T05:27:42;70.93;;;43.72;;
35380;SDS011;21486;51.916;8.378;2023-04-16T05:30:08;69.40;;;45.30;;
35380;SDS011;21486;51.916;8.378;2023-04-16T05:32:34;73.63;;;44.55;;
35380;SDS011;21486;51.916;8.378;2023-04-16T05:35:00;73.18;;;46.00;;
35380;SDS011;21486;51.916;8.378;2023-04-16T05:37:26;74.25;;;47.00;;
35380;SDS011;21486;51.916;8.378;2023-04-16T05:39:52;73.13;;;46.28;;
35380;SDS011;21486;51.916;8.378;2023-04-16T05:42:17;74.50;;;45.35;;
35380;SDS011;21486;51.916;8.378;2023-04-16T05:44:43;73.13;;;44.97;;
35380;SDS011;21486;51.916;8.378;2023-04-16T05:47:08;70.93;;;43.73;;
35380;SDS011;21486;51.916;8.378;2023-04-16T05:49:34;68.28;;;44.03;;
35380;SDS011;21486;51.916;8.378;2023-04-16T05:52:01;73.78;;;44.00;;
35380;SDS011;21486;51.916;8.378;2023-04-16T05:54:30;72.03;;;43.53;;
35380;SDS011;21486;51.916;8.378;2023-04-16T05:56:55;72.90;;;45.07;;
35380;SDS011;21486;51.916;8.378;2023-04-16T05:59:21;75.53;;;45.17;;
35380;SDS011;21486;51.916;8.378;2023-04-16T06:01:47;69.80;;;44.43;;
35380;SDS011;21486;51.916;8.378;2023-04-16T06:04:12;73.87;;;43.83;;
35380;SDS011;21486;51.916;8.378;2023-04-16T06:06:38;72.35;;;44.67;;
35380;SDS011;21486;51.916;8.378;2023-04-16T06:09:04;70.38;;;44.42;;
35380;SDS011;21486;51.916;8.378;2023-04-16T06:11:29;70.53;;;44.03;;
35380;SDS011;21486;51.916;8.378;2023-04-16T06:13:55;72.27;;;45.63;;
35380;SDS011;21486;51.916;8.378;2023-04-16T06:16:20;73.75;;;46.22;;
35380;SDS011;21486;51.916;8.378;2023-04-16T06:18:46;70.05;;;43.60;;
35380;SDS011;21486;51.916;8.378;2023-04-16T06:21:11;71.93;;;45.47;;
35380;SDS011;21486;51.916;8.378;2023-04-16T06:23:37;69.70;;;43.63;;
35380;SDS011;21486;51.916;8.378;2023-04-16T06:26:03;72.43;;;45.40;;
35380;SDS011;21486;51.916;8.378;2023-04-16T06:28:29;74.93;;;45.28;;
35380;SDS011;21486;51.916;8.378;2023-04-16T06:30:55;75.97;;;45.50;;
35380;SDS011;21486;51.916;8.378;2023-04-16T06:33:20;75.25;;;45.40;;
35380;SDS011;21486;51.916;8.378;2023-04-16T06:35:46;75.65;;;45.20;;
35380;SDS011;21486;51.916;8.378;2023-04-16T06:38:12;72.57;;;44.00;;
35380;SDS011;21486;51.916;8.378;2023-04-16T06:40:37;69.10;;;43.87;;
35380;SDS011;21486;51.916;8.378;2023-04-16T06:43:03;66.67;;;42.37;;
35380;SDS011;21486;51.916;8.378;2023-04-16T06:45:28;69.85;;;43.05;;
35380;SDS011;21486;51.916;8.378;2023-04-16T06:47:54;67.50;;;41.87;;
35380;SDS011;21486;51.916;8.378;2023-04-16T06:50:20;65.97;;;41.67;;
35380;SDS011;21486;51.916;8.378;2023-04-16T06:52:47;68.38;;;42.67;;
35380;SDS011;21486;51.916;8.378;2023-04-16T06:55:12;66.87;;;41.03;;
35380;SDS011;21486;51.916;8.378;2023-04-16T06:57:38;67.95;;;41.97;;
35380;SDS011;21486;51.916;8.378;2023-04-16T07:00:04;64.70;;;40.72;;
35380;SDS011;21486;51.916;8.378;2023-04-16T07:02:30;65.00;;;40.33;;
35380;SDS011;21486;51.916;8.378;2023-04-16T07:04:56;66.07;;;40.47;;
35380;SDS011;21486;51.916;8.378;2023-04-16T07:07:21;66.53;;;40.77;;
35380;SDS011;21486;51.916;8.378;2023-04-16T07:09:47;59.03;;;38.23;;
35380;SDS011;21486;51.916;8.378;2023-04-16T07:12:12;66.83;;;39.17;;
35380;SDS011;21486;51.916;8.378;2023-04-16T07:14:38;61.10;;;38.50;;
35380;SDS011;21486;51.916;8.378;2023-04-16T07:17:03;55.35;;;36.97;;
35380;SDS011;21486;51.916;8.378;2023-04-16T07:19:29;58.53;;;36.67;;
35380;SDS011;21486;51.916;8.378;2023-04-16T07:21:57;62.47;;;37.22;;
35380;SDS011;21486;51.916;8.378;2023-04-16T07:24:23;58.55;;;35.90;;
35380;SDS011;21486;51.916;8.378;2023-04-16T07:26:49;56.50;;;36.70;;
35380;SDS011;21486;51.916;8.378;2023-04-16T07:29:14;55.97;;;35.40;;
35380;SDS011;21486;51.916;8.378;2023-04-16T07:31:40;52.93;;;34.10;;
35380;SDS011;21486;51.916;8.378;2023-04-16T07:34:05;55.03;;;35.03;;
35380;SDS011;21486;51.916;8.378;2023-04-16T07:36:31;50.90;;;34.10;;
35380;SDS011;21486;51.916;8.378;2023-04-16T07:38:57;51.45;;;33.75;;
35380;SDS011;21486;51.916;8.378;2023-04-16T07:41:22;50.13;;;32.53;;
35380;SDS011;21486;51.916;8.378;2023-04-16T07:43:48;48.35;;;31.73;;
35380;SDS011;21486;51.916;8.378;2023-04-16T07:46:14;49.85;;;32.15;;
35380;SDS011;21486;51.916;8.378;2023-04-16T07:48:40;48.03;;;32.13;;
35380;SDS011;21486;51.916;8.378;2023-04-16T07:51:05;50.28;;;32.50;;
35380;SDS011;21486;51.916;8.378;2023-04-16T07:53:31;50.67;;;32.03;;
35380;SDS011;21486;51.916;8.378;2023-04-16T07:55:56;49.63;;;32.10;;
35380;SDS011;21486;51.916;8.378;2023-04-16T07:58:22;46.60;;;30.93;;
35380;SDS011;21486;51.916;8.378;2023-04-16T08:00:47;44.70;;;30.73;;
35380;SDS011;21486;51.916;8.378;2023-04-16T08:03:13;45.17;;;30.23;;
35380;SDS011;21486;51.916;8.378;2023-04-16T08:05:40;47.67;;;30.92;;
35380;SDS011;21486;51.916;8.378;2023-04-16T08:08:05;45.47;;;29.87;;
35380;SDS011;21486;51.916;8.378;2023-04-16T08:10:31;46.77;;;29.23;;
35380;SDS011;21486;51.916;8.378;2023-04-16T08:12:58;45.88;;;29.83;;
35380;SDS011;21486;51.916;8.378;2023-04-16T08:15:25;45.30;;;28.83;;
35380;SDS011;21486;51.916;8.378;2023-04-16T08:17:51;45.90;;;28.98;;
35380;SDS011;21486;51.916;8.378;2023-04-16T08:20:16;40.90;;;27.85;;
35380;SDS011;21486;51.916;8.378;2023-04-16T08:22:42;43.80;;;27.80;;
35380;SDS011;21486;51.916;8.378;2023-04-16T08:25:09;43.63;;;28.52;;
35380;SDS011;21486;51.916;8.378;2023-04-16T08:27:35;39.15;;;27.02;;
35380;SDS011;21486;51.916;8.378;2023-04-16T08:30:00;38.40;;;26.15;;
35380;SDS011;21486;51.916;8.378;2023-04-16T08:32:26;40.50;;;27.27;;
35380;SDS011;21486;51.916;8.378;2023-04-16T08:34:52;41.90;;;27.47;;
35380;SDS011;21486;51.916;8.378;2023-04-16T08:37:17;43.37;;;28.70;;
35380;SDS011;21486;51.916;8.378;2023-04-16T08:39:43;41.43;;;28.53;;
35380;SDS011;21486;51.916;8.378;2023-04-16T08:42:11;44.95;;;29.10;;
35380;SDS011;21486;51.916;8.378;2023-04-16T08:44:42;46.20;;;29.88;;
35380;SDS011;21486;51.916;8.378;2023-04-16T08:47:11;42.67;;;28.77;;
35380;SDS011;21486;51.916;8.378;2023-04-16T08:49:42;40.95;;;27.60;;
35380;SDS011;21486;51.916;8.378;2023-04-16T08:52:14;40.33;;;27.00;;
35380;SDS011;21486;51.916;8.378;2023-04-16T08:54:47;44.03;;;28.40;;
35380;SDS011;21486;51.916;8.378;2023-04-16T08:57:22;39.15;;;27.08;;
35380;SDS011;21486;51.916;8.378;2023-04-16T08:59:50;42.63;;;27.20;;
35380;SDS011;21486;51.916;8.378;2023-04-16T09:02:18;39.23;;;26.60;;
35380;SDS011;21486;51.916;8.378;2023-04-16T09:04:44;42.75;;;26.52;;
35380;SDS011;21486;51.916;8.378;2023-04-16T09:07:12;41.28;;;27.45;;
35380;SDS011;21486;51.916;8.378;2023-04-16T09:09:38;37.20;;;26.13;;
35380;SDS011;21486;51.916;8.378;2023-04-16T09:12:04;38.38;;;26.33;;
35380;SDS011;21486;51.916;8.378;2023-04-16T09:14:31;38.80;;;27.08;;
35380;SDS011;21486;51.916;8.378;2023-04-16T09:16:57;37.03;;;26.43;;
35380;SDS011;21486;51.916;8.378;2023-04-16T09:19:25;43.00;;;27.52;;
35380;SDS011;21486;51.916;8.378;2023-04-16T09:21:50;42.87;;;27.23;;
35380;SDS011;21486;51.916;8.378;2023-04-16T09:24:16;39.43;;;27.60;;
35380;SDS011;21486;51.916;8.378;2023-04-16T09:26:42;41.07;;;26.77;;
35380;SDS011;21486;51.916;8.378;2023-04-16T09:29:08;40.83;;;27.37;;
35380;SDS011;21486;51.916;8.378;2023-04-16T09:31:33;38.37;;;25.23;;
35380;SDS011;21486;51.916;8.378;2023-04-16T09:34:00;36.17;;;25.80;;
35380;SDS011;21486;51.916;8.378;2023-04-16T09:36:31;40.07;;;26.37;;
35380;SDS011;21486;51.916;8.378;2023-04-16T09:38:58;43.03;;;26.25;;
35380;SDS011;21486;51.916;8.378;2023-04-16T09:41:25;41.75;;;27.00;;
35380;SDS011;21486;51.916;8.378;2023-04-16T09:43:56;42.60;;;27.55;;
35380;SDS011;21486;51.916;8.378;2023-04-16T09:46:23;40.88;;;27.33;;
35380;SDS011;21486;51.916;8.378;2023-04-16T09:49:18;43.85;;;28.10;;
35380;SDS011;21486;51.916;8.378;2023-04-16T09:51:45;39.83;;;27.25;;
35380;SDS011;21486;51.916;8.378;2023-04-16T09:54:13;45.83;;;27.80;;
35380;SDS011;21486;51.916;8.378;2023-04-16T09:56:42;40.22;;;27.70;;
35380;SDS011;21486;51.916;8.378;2023-04-16T09:59:16;43.65;;;28.42;;
35380;SDS011;21486;51.916;8.378;2023-04-16T10:01:45;41.55;;;27.35;;
35380;SDS011;21486;51.916;8.378;2023-04-16T10:04:11;42.90;;;28.55;;
35380;SDS011;21486;51.916;8.378;2023-04-16T10:06:36;44.75;;;27.67;;
35380;SDS011;21486;51.916;8.378;2023-04-16T10:09:04;43.83;;;28.35;;
35380;SDS011;21486;51.916;8.378;2023-04-16T10:11:32;42.05;;;27.30;;
35380;SDS011;21486;51.916;8.378;2023-04-16T10:13:59;41.28;;;27.88;;
35380;SDS011;21486;51.916;8.378;2023-04-16T10:16:25;40.20;;;26.75;;
35380;SDS011;21486;51.916;8.378;2023-04-16T10:18:50;41.50;;;26.63;;
35380;SDS011;21486;51.916;8.378;2023-04-16T10:21:17;37.87;;;26.33;;
35380;SDS011;21486;51.916;8.378;2023-04-16T10:23:43;40.83;;;27.17;;
35380;SDS011;21486;51.916;8.378;2023-04-16T10:26:10;40.53;;;27.15;;
35380;SDS011;21486;51.916;8.378;2023-04-16T10:28:35;41.90;;;26.17;;
35380;SDS011;21486;51.916;8.378;2023-04-16T10:31:05;38.72;;;25.25;;
35380;SDS011;21486;51.916;8.378;2023-04-16T10:33:33;41.33;;;26.23;;
35380;SDS011;21486;51.916;8.378;2023-04-16T10:36:12;38.42;;;25.75;;
35380;SDS011;21486;51.916;8.378;2023-04-16T10:38:47;41.40;;;26.13;;
35380;SDS011;21486;51.916;8.378;2023-04-16T10:41:14;43.23;;;25.70;;
35380;SDS011;21486;51.916;8.378;2023-04-16T10:43:42;42.05;;;26.50;;
35380;SDS011;21486;51.916;8.378;2023-04-16T10:49:15;39.88;;;25.45;;
35380;SDS011;21486;51.916;8.378;2023-04-16T10:51:59;39.05;;;26.15;;
35380;SDS011;21486;51.916;8.378;2023-04-16T10:54:31;41.85;;;25.27;;
35380;SDS011;21486;51.916;8.378;2023-04-16T10:57:02;38.53;;;24.60;;
35380;SDS011;21486;51.916;8.378;2023-04-16T10:59:29;37.17;;;24.45;;
35380;SDS011;21486;51.916;8.378;2023-04-16T11:02:00;38.15;;;25.40;;
35380;SDS011;21486;51.916;8.378;2023-04-16T11:04:34;41.28;;;26.10;;
35380;SDS011;21486;51.916;8.378;2023-04-16T11:09:45;40.00;;;25.88;;
35380;SDS011;21486;51.916;8.378;2023-04-16T11:12:18;38.67;;;25.90;;
35380;SDS011;21486;51.916;8.378;2023-04-16T11:14:51;40.60;;;26.07;;
35380;SDS011;21486;51.916;8.378;2023-04-16T11:17:18;42.78;;;27.02;;
35380;SDS011;21486;51.916;8.378;2023-04-16T11:19:45;43.83;;;27.48;;
35380;SDS011;21486;51.916;8.378;2023-04-16T11:22:12;44.25;;;26.98;;
35380;SDS011;21486;51.916;8.378;2023-04-16T11:24:39;39.17;;;26.95;;
35380;SDS011;21486;51.916;8.378;2023-04-16T11:27:05;40.37;;;25.30;;
35380;SDS011;21486;51.916;8.378;2023-04-16T11:29:31;42.83;;;27.17;;
35380;SDS011;21486;51.916;8.378;2023-04-16T11:31:57;39.65;;;27.20;;
35380;SDS011;21486;51.916;8.378;2023-04-16T11:34:24;46.05;;;29.13;;
35380;SDS011;21486;51.916;8.378;2023-04-16T11:36:50;42.10;;;27.73;;
35380;SDS011;21486;51.916;8.378;2023-04-16T11:39:16;41.17;;;26.65;;
35380;SDS011;21486;51.916;8.378;2023-04-16T11:41:46;46.72;;;27.98;;
35380;SDS011;21486;51.916;8.378;2023-04-16T11:46:42;43.45;;;26.45;;
35380;SDS011;21486;51.916;8.378;2023-04-16T11:49:07;43.65;;;26.80;;
35380;SDS011;21486;51.916;8.378;2023-04-16T11:51:37;42.35;;;27.13;;
35380;SDS011;21486;51.916;8.378;2023-04-16T11:54:04;41.45;;;27.20;;
35380;SDS011;21486;51.916;8.378;2023-04-16T11:56:32;40.60;;;26.92;;
35380;SDS011;21486;51.916;8.378;2023-04-16T11:59:15;42.60;;;28.60;;
35380;SDS011;21486;51.916;8.378;2023-04-16T12:01:49;42.17;;;27.08;;
35380;SDS011;21486;51.916;8.378;2023-04-16T12:04:17;46.00;;;27.92;;
35380;SDS011;21486;51.916;8.378;2023-04-16T12:09:36;41.60;;;27.40;;
35380;SDS011;21486;51.916;8.378;2023-04-16T12:12:05;43.30;;;27.33;;
35380;SDS011;21486;51.916;8.378;2023-04-16T12:14:52;41.57;;;27.23;;
35380;SDS011;21486;51.916;8.378;2023-04-16T12:17:21;39.50;;;25.92;;
35380;SDS011;21486;51.916;8.378;2023-04-16T12:19:49;43.78;;;27.85;;
35380;SDS011;21486;51.916;8.378;2023-04-16T12:22:16;39.25;;;25.45;;
35380;SDS011;21486;51.916;8.378;2023-04-16T12:24:42;38.33;;;25.17;;
35380;SDS011;21486;51.916;8.378;2023-04-16T12:27:07;43.63;;;25.30;;
35380;SDS011;21486;51.916;8.378;2023-04-16T12:29:34;39.77;;;25.53;;
35380;SDS011;21486;51.916;8.378;2023-04-16T12:31:59;40.50;;;25.47;;
35380;SDS011;21486;51.916;8.378;2023-04-16T12:34:25;40.03;;;25.20;;
35380;SDS011;21486;51.916;8.378;2023-04-16T12:37:06;40.47;;;26.10;;
35380;SDS011;21486;51.916;8.378;2023-04-16T12:39:35;38.17;;;25.20;;
35380;SDS011;21486;51.916;8.378;2023-04-16T12:42:00;42.97;;;26.83;;
35380;SDS011;21486;51.916;8.378;2023-04-16T12:44:26;39.58;;;25.38;;
35380;SDS011;21486;51.916;8.378;2023-04-16T12:46:53;39.63;;;25.73;;
35380;SDS011;21486;51.916;8.378;2023-04-16T12:49:19;38.38;;;25.70;;
35380;SDS011;21486;51.916;8.378;2023-04-16T12:51:44;42.50;;;26.00;;
35380;SDS011;21486;51.916;8.378;2023-04-16T12:54:10;36.80;;;25.08;;
35380;SDS011;21486;51.916;8.378;2023-04-16T12:56:36;39.37;;;26.27;;
35380;SDS011;21486;51.916;8.378;2023-04-16T12:59:02;40.10;;;25.27;;
35380;SDS011;21486;51.916;8.378;2023-04-16T13:01:27;39.38;;;25.55;;
35380;SDS011;21486;51.916;8.378;2023-04-16T13:03:53;40.63;;;24.92;;
35380;SDS011;21486;51.916;8.378;2023-04-16T13:06:19;41.67;;;25.13;;
35380;SDS011;21486;51.916;8.378;2023-04-16T13:08:44;38.53;;;25.07;;
35380;SDS011;21486;51.916;8.378;2023-04-16T13:11:10;39.77;;;26.33;;
35380;SDS011;21486;51.916;8.378;2023-04-16T13:13:36;39.50;;;24.50;;
35380;SDS011;21486;51.916;8.378;2023-04-16T13:16:02;37.67;;;25.43;;
35380;SDS011;21486;51.916;8.378;2023-04-16T13:18:32;40.30;;;26.33;;
35380;SDS011;21486;51.916;8.378;2023-04-16T13:20:58;40.03;;;25.93;;
35380;SDS011;21486;51.916;8.378;2023-04-16T13:23:24;34.43;;;24.23;;
35380;SDS011;21486;51.916;8.378;2023-04-16T13:25:50;36.70;;;24.07;;
35380;SDS011;21486;51.916;8.378;2023-04-16T13:28:15;35.58;;;23.73;;
35380;SDS011;21486;51.916;8.378;2023-04-16T13:30:41;33.50;;;22.63;;
35380;SDS011;21486;51.916;8.378;2023-04-16T13:33:07;36.08;;;23.63;;
35380;SDS011;21486;51.916;8.378;2023-04-16T13:35:33;39.45;;;24.23;;
35380;SDS011;21486;51.916;8.378;2023-04-16T13:37:59;33.88;;;22.83;;
35380;SDS011;21486;51.916;8.378;2023-04-16T13:40:24;34.78;;;23.05;;
35380;SDS011;21486;51.916;8.378;2023-04-16T13:42:50;37.00;;;23.50;;
35380;SDS011;21486;51.916;8.378;2023-04-16T13:45:15;34.43;;;22.60;;
35380;SDS011;21486;51.916;8.378;2023-04-16T13:47:41;34.83;;;22.10;;
35380;SDS011;21486;51.916;8.378;2023-04-16T13:50:07;34.40;;;22.48;;
35380;SDS011;21486;51.916;8.378;2023-04-16T13:52:33;35.65;;;22.70;;
35380;SDS011;21486;51.916;8.378;2023-04-16T13:54:59;35.95;;;22.30;;
35380;SDS011;21486;51.916;8.378;2023-04-16T13:57:25;34.78;;;23.13;;
35380;SDS011;21486;51.916;8.378;2023-04-16T13:59:52;33.50;;;22.27;;
35380;SDS011;21486;51.916;8.378;2023-04-16T14:02:17;31.92;;;21.63;;
35380;SDS011;21486;51.916;8.378;2023-04-16T14:04:44;32.88;;;21.05;;
35380;SDS011;21486;51.916;8.378;2023-04-16T14:07:10;32.75;;;21.80;;
35380;SDS011;21486;51.916;8.378;2023-04-16T14:09:35;33.77;;;20.63;;
35380;SDS011;21486;51.916;8.378;2023-04-16T14:12:01;32.13;;;20.63;;
35380;SDS011;21486;51.916;8.378;2023-04-16T14:14:26;30.02;;;21.05;;
35380;SDS011;21486;51.916;8.378;2023-04-16T14:16:56;34.03;;;20.98;;
35380;SDS011;21486;51.916;8.378;2023-04-16T14:19:22;31.02;;;20.63;;
35380;SDS011;21486;51.916;8.378;2023-04-16T14:21:48;30.05;;;21.00;;
35380;SDS011;21486;51.916;8.378;2023-04-16T14:24:13;31.07;;;21.00;;
35380;SDS011;21486;51.916;8.378;2023-04-16T14:26:39;29.97;;;20.00;;
35380;SDS011;21486;51.916;8.378;2023-04-16T14:29:06;33.22;;;20.80;;
35380;SDS011;21486;51.916;8.378;2023-04-16T14:31:32;29.40;;;20.57;;
35380;SDS011;21486;51.916;8.378;2023-04-16T14:33:57;31.87;;;20.80;;